This is the latest recevied weather packets stored in our database for station/object DM4XI-13. If no packets are shown the sender has not sent any weather packets the latest 10 day(s).
| Time | Temp. | Humidity | Pressure | Rain* | Wind** | Luminosity | Snow |
|---|---|---|---|---|---|---|---|
| 1777712327 | 19.44° C | 42% | 1021 hPa | 0 mm | 0.89 m/s, 179° | 524 W/m² | - |
| 1777712266 | 19.44° C | 41% | 1021.2 hPa | 0 mm | 0.89 m/s, 123° | 523 W/m² | - |
| 1777712205 | 19.44° C | 41% | 1021.1 hPa | 0 mm | 1.34 m/s, 148° | 522 W/m² | - |
| 1777712144 | 19.44° C | 42% | 1021.2 hPa | 0 mm | 0.89 m/s, 180° | 520 W/m² | - |
| 1777712083 | 19.44° C | 40% | 1021.4 hPa | 0 mm | 2.24 m/s, 194° | 517 W/m² | - |
| 1777712022 | 19.44° C | 42% | 1021.2 hPa | 0 mm | 1.34 m/s, 180° | 516 W/m² | - |
| 1777711961 | 19.44° C | 40% | 1021.4 hPa | 0 mm | 1.34 m/s, 148° | 515 W/m² | - |
| 1777711900 | 19.44° C | 40% | 1021.3 hPa | 0 mm | 1.34 m/s, 177° | 513 W/m² | - |
| 1777711839 | 18.89° C | 43% | 1021.2 hPa | 0 mm | 0.89 m/s, 201° | 511 W/m² | - |
| 1777711778 | 18.89° C | 41% | 1021.4 hPa | 0 mm | 1.79 m/s, 180° | 509 W/m² | - |
| 1777711717 | 18.89° C | 42% | 1021.2 hPa | 0 mm | 0.45 m/s, 184° | 507 W/m² | - |
| 1777711656 | 18.89° C | 42% | 1021.3 hPa | 0 mm | 1.79 m/s, 173° | 506 W/m² | - |
| 1777711595 | 18.89° C | 41% | 1021.1 hPa | 0 mm | 1.79 m/s, 182° | 505 W/m² | - |
| 1777711534 | 18.89° C | 42% | 1021.3 hPa | 0 mm | 1.79 m/s, 164° | 503 W/m² | - |
| 1777711473 | 18.89° C | 41% | 1021.4 hPa | 0 mm | 1.34 m/s, 149° | 501 W/m² | - |
| 1777711412 | 18.89° C | 41% | 1021.5 hPa | 0 mm | 2.24 m/s, 173° | 500 W/m² | - |
| 1777711351 | 18.89° C | 41% | 1021.3 hPa | 0 mm | 1.79 m/s, 178° | 497 W/m² | - |
| 1777711290 | 18.89° C | 40% | 1021.4 hPa | 0 mm | 0.89 m/s, 217° | 495 W/m² | - |
| 1777711229 | 18.89° C | 43% | 1021.3 hPa | 0 mm | 0.89 m/s, 186° | 493 W/m² | - |
| 1777711168 | 19.44° C | 40% | 1021.4 hPa | 0 mm | 0.89 m/s, 185° | 492 W/m² | - |
| 1777711107 | 19.44° C | 42% | 1021.2 hPa | 0 mm | 2.24 m/s, 188° | 490 W/m² | - |
| 1777711046 | 19.44° C | 41% | 1021.3 hPa | 0 mm | 1.34 m/s, 180° | 488 W/m² | - |
| 1777710985 | 19.44° C | 41% | 1021.4 hPa | 0 mm | 0.89 m/s, 194° | 486 W/m² | - |
| 1777710924 | 19.44° C | 40% | 1021.4 hPa | 0 mm | 0.89 m/s, 181° | 485 W/m² | - |
| 1777710863 | 18.89° C | 41% | 1021.4 hPa | 0 mm | 0.45 m/s, 184° | 482 W/m² | - |
* Rain latest hour (hover to see other rain measurements)
** Current wind speed in m/s (hover to see current wind gust speed)